Weather at Eliporto Sant'anna

Public forecast

Using degrees Celsius for public forecast. Weather courtesy of forecast.io.

Closest aviation weather report (METAR) to Eliporto Sant'anna

Closest report is Lecce Galatina Air Base, 15.0 nm (27.8 km) ESE. Retrieved 2021/09/28 12:55 UTC (41 minutes ago):

LIBN 281255Z 35012KT 9999 SCT035 27/19 Q1015 RMK SCT VIS MIN 9999 WIND THR14 36013KT WIND THR32 36012KT BLU

Closest aviation forecast (TAF) to Eliporto Sant'anna

Forecast is more than 12 hours old.

Closest forecast is Lecce Galatina Air Base, 15.0 nm (27.8 km) ESE. Retrieved 2021/06/28 12:51 UTC (3 months ago):

TAF TAF LIBN 281100Z 2812/2824 VRB03KT CAVOK